createdAt,value
2022-12-01T00:01:33.225Z,99409.19
2022-12-01T00:04:00.243Z,99411.81
2022-12-01T00:06:27.933Z,99410.03
2022-12-01T00:09:19.731Z,99409.19
2022-12-01T00:11:48.365Z,99413.50
2022-12-01T00:14:16.463Z,99415.22
2022-12-01T00:16:44.733Z,99417.84
2022-12-01T00:19:11.738Z,99408.25
2022-12-01T00:21:38.884Z,99410.00
2022-12-01T00:24:07.416Z,99406.53
2022-12-01T00:26:34.554Z,99407.38
2022-12-01T00:29:01.375Z,99407.38
2022-12-01T00:31:28.782Z,99407.38
2022-12-01T00:33:56.167Z,99413.47
2022-12-01T00:36:24.129Z,99407.38
2022-12-01T00:39:01.055Z,99408.25
2022-12-01T00:41:32.117Z,99414.38
2022-12-01T00:43:58.889Z,99408.25
2022-12-01T00:46:26.115Z,99403.03
2022-12-01T00:48:53.050Z,99412.63
2022-12-01T00:51:20.274Z,99401.31
2022-12-01T00:53:47.673Z,99403.00
2022-12-01T00:56:15.174Z,99403.91
2022-12-01T00:58:42.817Z,99410.88
2022-12-01T01:01:10.380Z,99417.84
2022-12-01T01:03:40.641Z,99410.03
2022-12-01T01:06:16.199Z,99417.03
2022-12-01T01:08:47.337Z,99416.19
2022-12-01T01:11:14.552Z,99406.59
2022-12-01T01:13:41.393Z,99399.66
2022-12-01T01:16:18.405Z,99402.28
2022-12-01T01:18:47.384Z,99404.88
2022-12-01T01:21:18.591Z,99410.13
2022-12-01T01:23:46.002Z,99404.88
2022-12-01T01:26:22.659Z,99403.13
2022-12-01T01:28:51.460Z,99405.75
2022-12-01T01:31:24.580Z,99397.91
2022-12-01T01:33:53.985Z,99402.28
2022-12-01T01:36:23.368Z,99404.91
2022-12-01T01:38:54.456Z,99404.91
2022-12-01T01:41:24.181Z,99397.06
2022-12-01T01:44:02.950Z,99403.16
2022-12-01T01:46:37.030Z,99402.31
2022-12-01T01:49:19.613Z,99408.41
2022-12-01T01:51:56.375Z,99407.56
2022-12-01T01:54:34.110Z,99398.84
2022-12-01T01:57:08.041Z,99405.84
2022-12-01T01:59:50.732Z,99400.63
2022-12-01T02:02:22.185Z,99405.00
2022-12-01T02:05:01.399Z,99403.25
2022-12-01T02:07:34.597Z,99403.25
2022-12-01T02:10:01.912Z,99399.78
2022-12-01T02:12:53.793Z,99401.50
2022-12-01T02:16:20.684Z,99390.22
2022-12-01T02:19:24.761Z,99396.34
2022-12-01T02:22:48.208Z,99394.59
2022-12-01T02:25:48.911Z,99391.13
2022-12-01T02:28:53.182Z,99392.84
2022-12-01T02:31:58.828Z,99385.00
2022-12-01T02:34:51.699Z,99388.50
2022-12-01T02:37:41.437Z,99385.06
2022-12-01T02:41:10.470Z,99389.38
2022-12-01T02:44:12.528Z,99390.28
2022-12-01T02:47:14.619Z,99393.78
2022-12-01T02:49:51.992Z,99380.69
2022-12-01T02:52:29.029Z,99385.09
2022-12-01T02:54:57.483Z,99379.00
2022-12-01T02:57:25.253Z,99378.16
2022-12-01T03:00:01.308Z,99371.19
2022-12-01T03:02:42.893Z,99378.16
2022-12-01T03:05:20.868Z,99369.44
2022-12-01T03:08:13.930Z,99374.66
2022-12-01T03:10:56.039Z,99372.06
2022-12-01T03:13:56.748Z,99371.19
2022-12-01T03:16:47.958Z,99379.03
2022-12-01T03:19:37.873Z,99380.78
2022-12-01T03:22:15.166Z,99380.78
2022-12-01T03:24:48.441Z,99383.41
2022-12-01T03:27:27.091Z,99374.72
2022-12-01T03:30:01.742Z,99370.38
2022-12-01T03:32:47.473Z,99369.50
2022-12-01T03:35:51.770Z,99369.50
2022-12-01T03:38:30.903Z,99359.91
2022-12-01T03:41:10.588Z,99371.22
2022-12-01T03:43:52.206Z,99369.50
2022-12-01T03:47:03.471Z,99370.38
2022-12-01T03:49:36.407Z,99365.13
2022-12-01T03:52:52.337Z,99379.09
2022-12-01T03:55:31.606Z,99379.97
2022-12-01T03:58:41.091Z,99376.50
2022-12-01T04:01:13.347Z,99372.16
2022-12-01T04:03:45.423Z,99379.13
2022-12-01T04:06:12.585Z,99386.97
2022-12-01T04:08:39.890Z,99381.72
2022-12-01T04:11:32.372Z,99379.97
2022-12-01T04:13:59.959Z,99376.50
2022-12-01T04:16:27.247Z,99374.78
2022-12-01T04:18:54.145Z,99377.44
2022-12-01T04:21:21.284Z,99378.28
2022-12-01T04:24:00.873Z,99378.28
2022-12-01T04:26:45.603Z,99384.41
2022-12-01T04:29:21.816Z,99382.66
2022-12-01T04:31:49.071Z,99386.13
2022-12-01T04:34:16.015Z,99390.50
2022-12-01T04:36:43.231Z,99394.00
2022-12-01T04:39:10.589Z,99389.66
2022-12-01T04:41:37.971Z,99387.91
2022-12-01T04:44:05.645Z,99388.81
2022-12-01T04:46:33.124Z,99390.56
2022-12-01T04:49:00.532Z,99391.41
2022-12-01T04:51:31.604Z,99401.00
2022-12-01T04:53:59.358Z,99404.47
2022-12-01T04:56:36.598Z,99399.25
2022-12-01T04:59:03.805Z,99399.25
2022-12-01T05:01:30.987Z,99399.25
2022-12-01T05:03:58.124Z,99400.09
2022-12-01T05:06:29.863Z,99388.81
2022-12-01T05:12:35.486Z,99392.31
2022-12-01T05:15:03.049Z,99395.78
2022-12-01T05:17:36.745Z,99396.69
2022-12-01T05:20:44.539Z,99387.97
2022-12-01T05:23:16.981Z,99390.63
2022-12-01T05:25:54.435Z,99390.63
2022-12-01T05:28:24.933Z,99395.84
2022-12-01T05:31:03.411Z,99397.59
2022-12-01T05:33:32.212Z,99401.06
2022-12-01T05:36:08.912Z,99393.22
2022-12-01T05:38:36.065Z,99398.44
2022-12-01T05:41:03.407Z,99397.56
2022-12-01T05:43:30.736Z,99400.16
2022-12-01T05:45:58.747Z,99404.53
2022-12-01T05:48:26.034Z,99401.91
2022-12-01T05:50:53.063Z,99401.91
2022-12-01T05:53:20.865Z,99402.81
2022-12-01T05:56:02.675Z,99410.63
2022-12-01T05:58:29.793Z,99404.53
2022-12-01T06:00:56.951Z,99405.38
2022-12-01T06:03:59.587Z,99407.97
2022-12-01T06:06:29.891Z,99406.22
2022-12-01T06:08:56.969Z,99407.13
2022-12-01T06:11:23.902Z,99402.75
2022-12-01T06:13:51.024Z,99404.50
2022-12-01T06:16:17.936Z,99408.84
2022-12-01T06:18:45.305Z,99409.72
2022-12-01T06:21:12.615Z,99407.97
2022-12-01T06:23:39.970Z,99408.84
2022-12-01T06:26:07.532Z,99417.56
2022-12-01T06:28:37.664Z,99407.13
2022-12-01T06:31:04.676Z,99421.00
2022-12-01T06:33:32.354Z,99416.66
2022-12-01T06:36:01.448Z,99420.16
2022-12-01T06:38:38.660Z,99420.13
2022-12-01T06:41:06.275Z,99422.75
2022-12-01T06:43:38.807Z,99422.72
2022-12-01T06:46:12.972Z,99431.44
2022-12-01T06:48:40.419Z,99430.56
2022-12-01T06:51:07.332Z,99432.31
2022-12-01T06:53:34.743Z,99434.00
2022-12-01T06:56:06.184Z,99437.50
2022-12-01T06:58:42.556Z,99441.84
2022-12-01T07:01:13.042Z,99440.06
2022-12-01T07:03:40.954Z,99448.78
2022-12-01T07:06:09.451Z,99444.44
2022-12-01T07:08:37.737Z,99443.56
2022-12-01T07:11:16.343Z,99450.50
2022-12-01T07:13:52.135Z,99454.00
2022-12-01T07:16:22.637Z,99451.41
2022-12-01T07:19:28.922Z,99448.75
2022-12-01T07:21:55.772Z,99449.66
2022-12-01T07:24:23.281Z,99449.66
2022-12-01T07:26:50.656Z,99457.47
2022-12-01T07:29:18.608Z,99455.72
2022-12-01T07:31:45.451Z,99461.84
2022-12-01T07:34:15.782Z,99461.00
2022-12-01T07:36:42.611Z,99457.50
2022-12-01T07:39:09.788Z,99461.84
2022-12-01T07:41:36.936Z,99463.56
2022-12-01T07:44:04.739Z,99474.00
2022-12-01T07:46:32.378Z,99473.13
2022-12-01T07:49:00.398Z,99467.91
2022-12-01T07:51:29.115Z,99469.66
2022-12-01T07:54:05.543Z,99467.06
2022-12-01T07:56:35.651Z,99471.38
2022-12-01T07:59:03.326Z,99470.53
2022-12-01T08:02:06.714Z,99473.97
2022-12-01T08:04:46.357Z,99473.97
2022-12-01T08:07:13.200Z,99470.47
2022-12-01T08:09:51.927Z,99474.84
2022-12-01T08:12:52.401Z,99472.22
2022-12-01T08:15:39.130Z,99479.19
2022-12-01T08:18:06.050Z,99478.31
2022-12-01T08:20:58.806Z,99480.91
2022-12-01T08:24:01.087Z,99478.31
2022-12-01T08:26:55.719Z,99473.97
2022-12-01T08:29:57.773Z,99478.31
2022-12-01T08:32:24.968Z,99474.78
2022-12-01T08:34:53.503Z,99473.94
2022-12-01T08:37:21.195Z,99478.28
2022-12-01T08:39:48.190Z,99469.56
2022-12-01T08:42:29.554Z,99461.75
2022-12-01T08:44:56.566Z,99470.47
2022-12-01T08:47:23.707Z,99467.84
2022-12-01T08:49:50.982Z,99470.47
2022-12-01T08:52:18.501Z,99475.66
2022-12-01T08:55:32.418Z,99476.53
2022-12-01T08:58:00.729Z,99474.75
2022-12-01T09:00:27.901Z,99461.69
2022-12-01T09:02:55.440Z,99471.25
2022-12-01T09:05:59.361Z,99469.47
2022-12-01T09:08:35.454Z,99466.00
2022-12-01T09:14:10.068Z,99468.59
2022-12-01T09:16:40.856Z,99470.31
2022-12-01T09:19:08.754Z,99475.50
2022-12-01T09:22:00.772Z,99472.00
2022-12-01T09:24:49.773Z,99464.97
2022-12-01T09:27:20.468Z,99467.50
2022-12-01T09:29:47.552Z,99472.69
2022-12-01T09:32:15.021Z,99467.38
2022-12-01T09:35:23.243Z,99474.31
2022-12-01T09:37:58.894Z,99471.66
2022-12-01T09:40:57.420Z,99469.88
2022-12-01T09:43:46.386Z,99469.00
2022-12-01T09:46:34.009Z,99472.47
2022-12-01T09:49:13.311Z,99468.94
2022-12-01T09:52:20.189Z,99461.06
2022-12-01T09:54:50.149Z,99472.44
2022-12-01T09:57:40.449Z,99468.91
2022-12-01T10:01:16.377Z,99480.19
2022-12-01T10:04:38.795Z,99471.38
2022-12-01T10:07:16.496Z,99470.56
2022-12-01T10:09:55.303Z,99476.69
2022-12-01T10:12:36.682Z,99475.78
2022-12-01T10:15:37.576Z,99467.09
2022-12-01T10:18:32.202Z,99467.06
2022-12-01T10:21:11.362Z,99456.63
2022-12-01T10:24:28.798Z,99463.53
2022-12-01T10:27:44.234Z,99460.06
2022-12-01T10:30:23.824Z,99458.41
2022-12-01T10:33:30.429Z,99455.81
2022-12-01T10:35:58.160Z,99453.19
2022-12-01T10:38:36.903Z,99454.06
2022-12-01T10:41:15.062Z,99451.44
2022-12-01T10:43:54.113Z,99441.00
2022-12-01T10:46:46.853Z,99449.72
2022-12-01T10:49:20.365Z,99439.19
2022-12-01T10:51:57.816Z,99442.69
2022-12-01T10:54:45.025Z,99433.94
2022-12-01T10:57:17.782Z,99433.06
2022-12-01T10:59:58.133Z,99429.56
2022-12-01T11:02:39.885Z,99426.91
2022-12-01T11:05:25.803Z,99422.56
2022-12-01T11:07:54.347Z,99424.28
2022-12-01T11:10:37.046Z,99422.56
2022-12-01T11:13:29.431Z,99430.44
2022-12-01T11:17:00.272Z,99426.00
2022-12-01T11:19:36.269Z,99422.53
2022-12-01T11:22:29.159Z,99417.34
2022-12-01T11:25:21.907Z,99420.00
2022-12-01T11:28:01.940Z,99418.22
2022-12-01T11:31:03.634Z,99419.09
2022-12-01T11:33:45.229Z,99411.19
2022-12-01T11:37:16.069Z,99405.13
2022-12-01T11:41:24.680Z,99400.72
2022-12-01T11:44:06.225Z,99396.25
2022-12-01T11:47:23.358Z,99401.47
2022-12-01T11:50:25.999Z,99399.69
2022-12-01T11:54:31.148Z,99401.34
2022-12-01T11:57:33.753Z,99400.50
2022-12-01T12:00:17.420Z,99399.53
2022-12-01T12:03:19.614Z,99403.03
2022-12-01T12:06:32.284Z,99398.69
2022-12-01T12:09:24.615Z,99402.09
2022-12-01T12:12:13.489Z,99400.28
2022-12-01T12:15:42.876Z,99399.47
2022-12-01T12:18:43.260Z,99398.56
2022-12-01T12:21:37.496Z,99395.06
2022-12-01T12:24:36.951Z,99389.78
2022-12-01T12:27:27.080Z,99387.13
2022-12-01T12:30:24.858Z,99385.38
2022-12-01T12:33:46.681Z,99385.31
2022-12-01T12:36:51.869Z,99388.88
2022-12-01T12:39:31.651Z,99382.75
2022-12-01T12:41:58.895Z,99383.59
2022-12-01T12:44:50.331Z,99379.22
2022-12-01T12:47:51.276Z,99382.75
2022-12-01T12:50:36.835Z,99392.28
2022-12-01T12:53:21.924Z,99389.66
2022-12-01T12:55:54.201Z,99387.91
2022-12-01T12:58:58.355Z,99395.75
2022-12-01T13:01:37.627Z,99388.72
2022-12-01T13:04:26.233Z,99394.88
2022-12-01T13:07:07.965Z,99387.03
2022-12-01T13:09:47.825Z,99387.91
2022-12-01T13:12:29.413Z,99380.91
2022-12-01T13:15:18.538Z,99374.91
2022-12-01T13:17:54.897Z,99377.50
2022-12-01T13:20:28.867Z,99365.34
2022-12-01T13:23:01.497Z,99370.59
2022-12-01T13:25:41.130Z,99375.84
2022-12-01T13:28:25.504Z,99374.09
2022-12-01T13:31:20.766Z,99381.06
2022-12-01T13:33:56.867Z,99382.81
2022-12-01T13:39:27.044Z,99384.59
2022-12-01T13:42:04.898Z,99387.22
2022-12-01T13:44:42.464Z,99387.22
2022-12-01T13:47:14.028Z,99385.44
2022-12-01T13:49:45.445Z,99384.66
2022-12-01T13:52:28.385Z,99386.44
2022-12-01T13:55:07.540Z,99392.50
2022-12-01T13:57:58.048Z,99388.13
2022-12-01T14:00:35.320Z,99382.97
2022-12-01T14:03:39.279Z,99389.94
2022-12-01T14:06:21.274Z,99387.34
2022-12-01T14:08:54.978Z,99382.97
2022-12-01T14:11:28.831Z,99386.50
2022-12-01T14:14:12.544Z,99383.00
2022-12-01T14:17:03.484Z,99374.25
2022-12-01T14:19:53.110Z,99390.81
2022-12-01T14:22:39.435Z,99385.53
2022-12-01T14:25:36.270Z,99382.91
2022-12-01T14:28:15.592Z,99381.16
2022-12-01T14:30:45.951Z,99382.03
2022-12-01T14:34:18.922Z,99382.84
2022-12-01T14:37:30.379Z,99375.03
2022-12-01T14:40:36.272Z,99378.53
2022-12-01T14:43:38.594Z,99379.44
2022-12-01T14:46:18.631Z,99380.34
2022-12-01T14:49:00.266Z,99385.53
2022-12-01T14:51:50.400Z,99382.97
2022-12-01T14:54:35.248Z,99380.38
2022-12-01T14:57:22.785Z,99386.50
2022-12-01T15:00:19.442Z,99382.19
2022-12-01T15:03:09.528Z,99377.00
2022-12-01T15:05:48.360Z,99387.47
2022-12-01T15:08:41.935Z,99382.25
2022-12-01T15:11:30.581Z,99383.09
2022-12-01T15:13:58.361Z,99381.34
2022-12-01T15:16:31.181Z,99381.38
2022-12-01T15:19:32.532Z,99381.31
2022-12-01T15:22:11.513Z,99383.03
2022-12-01T15:24:39.535Z,99383.03
2022-12-01T15:27:39.171Z,99383.88
2022-12-01T15:30:16.803Z,99383.00
2022-12-01T15:32:49.882Z,99379.56
2022-12-01T15:35:23.775Z,99376.97
2022-12-01T15:38:09.218Z,99380.44
2022-12-01T15:41:20.720Z,99383.97
2022-12-01T15:43:41.397Z,99386.66
2022-12-01T15:46:35.329Z,99387.50
2022-12-01T15:49:33.887Z,99383.09
2022-12-01T15:52:10.890Z,99387.47
2022-12-01T15:54:40.626Z,99389.22
2022-12-01T15:57:25.781Z,99385.72
2022-12-01T15:59:57.976Z,99389.25
2022-12-01T16:02:34.519Z,99386.69
2022-12-01T16:05:36.801Z,99386.75
2022-12-01T16:08:30.785Z,99380.69
2022-12-01T16:11:37.521Z,99379.84
2022-12-01T16:14:27.637Z,99384.22
2022-12-01T16:16:55.243Z,99379.88
2022-12-01T16:19:33.425Z,99397.28
2022-12-01T16:22:12.386Z,99385.06
2022-12-01T16:25:04.067Z,99384.22
2022-12-01T16:27:33.600Z,99382.47
2022-12-01T16:30:14.179Z,99382.47
2022-12-01T16:32:44.172Z,99375.53
2022-12-01T16:35:21.480Z,99372.91
2022-12-01T16:37:48.824Z,99383.34
2022-12-01T16:40:16.924Z,99381.59
2022-12-01T16:42:44.416Z,99376.34
2022-12-01T16:45:15.313Z,99377.19
2022-12-01T16:47:47.041Z,99371.13
2022-12-01T16:50:17.717Z,99383.28
2022-12-01T16:52:45.732Z,99385.16
2022-12-01T16:55:22.562Z,99382.53
2022-12-01T16:57:53.011Z,99378.19
2022-12-01T17:00:21.976Z,99382.53
2022-12-01T17:02:48.893Z,99385.16
2022-12-01T17:05:16.810Z,99392.13
2022-12-01T17:07:43.925Z,99390.44
2022-12-01T17:10:12.257Z,99382.56
2022-12-01T17:12:39.821Z,99380.81
2022-12-01T17:15:07.741Z,99386.97
2022-12-01T17:17:34.975Z,99385.22
2022-12-01T17:20:05.557Z,99385.28
2022-12-01T17:22:37.142Z,99381.03
2022-12-01T17:25:07.081Z,99382.78
2022-12-01T17:27:34.217Z,99383.63
2022-12-01T17:30:04.376Z,99387.19
2022-12-01T17:32:32.292Z,99379.34
2022-12-01T17:35:00.152Z,99384.53
2022-12-01T17:37:30.570Z,99378.53
2022-12-01T17:40:00.085Z,99381.09
2022-12-01T17:42:32.254Z,99392.41
2022-12-01T17:45:00.057Z,99390.72
2022-12-01T17:47:27.392Z,99396.81
2022-12-01T17:49:54.719Z,99403.81
2022-12-01T17:52:26.662Z,99395.97
2022-12-01T17:55:00.592Z,99409.00
2022-12-01T17:57:28.748Z,99401.22
2022-12-01T17:59:56.372Z,99400.34
2022-12-01T18:02:23.482Z,99394.25
2022-12-01T18:04:51.555Z,99399.47
2022-12-01T18:07:20.117Z,99403.00
2022-12-01T18:09:47.310Z,99409.13
2022-12-01T18:12:14.142Z,99420.41
2022-12-01T18:14:41.530Z,99412.63
2022-12-01T18:17:08.894Z,99416.06
2022-12-01T18:19:36.630Z,99423.91
2022-12-01T18:22:06.044Z,99422.16
2022-12-01T18:24:33.301Z,99419.53
2022-12-01T18:27:00.254Z,99429.13
2022-12-01T18:29:28.766Z,99424.00
2022-12-01T18:31:57.748Z,99423.19
2022-12-01T18:34:32.982Z,99418.81
2022-12-01T18:37:02.895Z,99424.03
2022-12-01T18:39:30.137Z,99428.41
2022-12-01T18:41:58.250Z,99428.47
2022-12-01T18:44:25.931Z,99424.09
2022-12-01T18:46:53.160Z,99421.53
2022-12-01T18:49:20.505Z,99421.47
2022-12-01T18:51:47.515Z,99411.94
2022-12-01T18:54:15.911Z,99421.50
2022-12-01T18:56:43.263Z,99421.53
2022-12-01T18:59:13.791Z,99411.94
2022-12-01T19:01:49.151Z,99421.53
2022-12-01T19:04:17.371Z,99413.72
2022-12-01T19:06:46.616Z,99419.84
2022-12-01T19:09:20.149Z,99420.75
2022-12-01T19:12:03.615Z,99419.94
2022-12-01T19:14:31.563Z,99419.13
2022-12-01T19:17:00.816Z,99409.56
2022-12-01T19:19:29.952Z,99411.34
2022-12-01T19:22:00.753Z,99407.00
2022-12-01T19:24:37.012Z,99415.75
2022-12-01T19:27:04.516Z,99417.50
2022-12-01T19:29:43.536Z,99416.59
2022-12-01T19:32:11.002Z,99414.00
2022-12-01T19:34:38.202Z,99414.88
2022-12-01T19:37:05.031Z,99414.00
2022-12-01T19:39:32.450Z,99406.22
2022-12-01T19:41:59.322Z,99410.50
2022-12-01T19:44:26.699Z,99407.06
2022-12-01T19:46:54.713Z,99407.97
2022-12-01T19:49:21.861Z,99394.94
2022-12-01T19:51:49.226Z,99397.59
2022-12-01T19:54:19.753Z,99395.00
2022-12-01T19:56:46.812Z,99403.66
2022-12-01T19:59:15.272Z,99405.38
2022-12-01T20:01:50.466Z,99395.84
2022-12-01T20:04:18.848Z,99395.88
2022-12-01T20:06:46.150Z,99391.53
2022-12-01T20:09:14.412Z,99395.84
2022-12-01T20:11:41.507Z,99399.31
2022-12-01T20:14:10.031Z,99401.91
2022-12-01T20:16:36.919Z,99403.66
2022-12-01T20:19:05.811Z,99417.59
2022-12-01T20:21:43.541Z,99411.50
2022-12-01T20:24:22.022Z,99414.94
2022-12-01T20:26:53.847Z,99427.09
2022-12-01T20:29:29.115Z,99431.47
2022-12-01T20:32:01.165Z,99421.88
2022-12-01T20:34:38.084Z,99421.91
2022-12-01T20:37:07.975Z,99424.53
2022-12-01T20:39:37.963Z,99417.59
2022-12-01T20:42:07.724Z,99416.72
2022-12-01T20:44:39.228Z,99419.31
2022-12-01T20:47:08.757Z,99421.06
2022-12-01T20:49:36.914Z,99419.31
2022-12-01T20:52:04.695Z,99424.56
2022-12-01T20:54:32.472Z,99415.84
2022-12-01T20:57:00.387Z,99423.69
2022-12-01T20:59:28.997Z,99407.19
2022-12-01T21:01:56.758Z,99408.88
2022-12-01T21:04:25.093Z,99409.78
2022-12-01T21:07:01.401Z,99408.88
2022-12-01T21:09:28.882Z,99410.63
2022-12-01T21:12:35.199Z,99405.41
2022-12-01T21:15:24.973Z,99411.50
2022-12-01T21:18:22.842Z,99419.31
2022-12-01T21:21:10.886Z,99424.53
2022-12-01T21:23:38.554Z,99415.84
2022-12-01T21:26:16.640Z,99421.97
2022-12-01T21:28:45.038Z,99420.22
2022-12-01T21:31:15.234Z,99428.03
2022-12-01T21:33:46.916Z,99426.31
2022-12-01T21:36:23.207Z,99432.41
2022-12-01T21:39:00.477Z,99430.69
2022-12-01T21:41:30.289Z,99431.53
2022-12-01T21:44:17.873Z,99431.53
2022-12-01T21:46:46.339Z,99430.69
2022-12-01T21:49:22.666Z,99429.78
2022-12-01T21:51:55.303Z,99422.81
2022-12-01T21:54:23.489Z,99414.09
2022-12-01T21:57:00.860Z,99410.63
2022-12-01T21:59:28.112Z,99402.81
2022-12-01T22:01:57.504Z,99397.59
2022-12-01T22:04:37.574Z,99399.31
2022-12-01T22:07:05.270Z,99399.31
2022-12-01T22:09:36.842Z,99398.44
2022-12-01T22:12:10.790Z,99388.88
2022-12-01T22:14:38.006Z,99385.41
2022-12-01T22:17:09.362Z,99390.63
2022-12-01T22:19:46.473Z,99386.25
2022-12-01T22:22:22.780Z,99390.63
2022-12-01T22:25:04.853Z,99386.25
2022-12-01T22:27:42.681Z,99384.50
2022-12-01T22:30:25.117Z,99381.91
2022-12-01T22:33:39.890Z,99383.66
2022-12-01T22:36:33.519Z,99389.72
2022-12-01T22:39:01.528Z,99381.91
2022-12-01T22:41:29.455Z,99378.44
2022-12-01T22:44:03.519Z,99368.91
2022-12-01T22:46:46.661Z,99379.28
2022-12-01T22:49:26.150Z,99375.81
2022-12-01T22:52:30.877Z,99381.03
2022-12-01T22:55:00.457Z,99377.59
2022-12-01T22:57:37.831Z,99380.19
2022-12-01T23:00:21.684Z,99381.91
2022-12-01T23:03:00.025Z,99371.47
2022-12-01T23:05:41.049Z,99370.63
2022-12-01T23:08:32.610Z,99365.41
2022-12-01T23:10:59.754Z,99354.97
2022-12-01T23:13:26.639Z,99354.13
2022-12-01T23:15:54.287Z,99347.13
2022-12-01T23:18:32.533Z,99347.13
2022-12-01T23:21:01.772Z,99338.41
2022-12-01T23:23:40.492Z,99333.19
2022-12-01T23:26:09.007Z,99329.75
2022-12-01T23:28:44.609Z,99327.13
2022-12-01T23:31:13.856Z,99332.34
2022-12-01T23:33:41.394Z,99325.41
2022-12-01T23:36:28.913Z,99333.19
2022-12-01T23:39:08.352Z,99333.19
2022-12-01T23:41:48.633Z,99337.56
2022-12-01T23:44:42.771Z,99343.69
2022-12-01T23:47:27.814Z,99344.53
2022-12-01T23:50:06.818Z,99343.69
2022-12-01T23:52:36.994Z,99343.63
2022-12-01T23:55:29.140Z,99350.59
2022-12-01T23:58:17.950Z,99354.97
